KSUX/SUX METAR and TAF weather

Enter ICAO airport designator
Station Type Date Time Source
KSUX METAR 2022/01/26 19:52 UTC NOAA

KSUX 261952Z 21018G29KT 10SM CLR 03/M08 A3004 RMK AO2 PK WND 19034/1920 SLP191 T00331083


Station Type Date Time Source
KSUX Decoded METAR 2022/01/26 19:52 UTC NOAA

SIOUX GATEWAY AIRPORT, IA, United States (KSUX) 42-23N 96-23W 338M
Jan 26, 2022 - 02:52 PM EST / 2022.01.26 1952 UTC
Wind: from the SSW (210 degrees) at 21 MPH (18 KT) gusting to 33 MPH (29 KT):0
Visibility: 10 mile(s):0
Sky conditions: clear
Temperature: 37.9 F (3.3 C)
Dew Point: 17.1 F (-8.3 C)
Relative Humidity: 42%
Pressure (altimeter): 30.04 in. Hg (1017 hPa)
ob: KSUX 261952Z 21018G29KT 10SM CLR 03/M08 A3004 RMK AO2 PK WND 19034/1920 SLP191 T00331083
cycle: 20

Station Type Date Time Source
KSUX TAF 2022/01/26 18:27 UTC NOAA

TAF KSUX 261724Z 2618/2718 20017G30KT P6SM FEW018 SCT200
FM270000 20016G22KT P6SM BKN200 WS020/24040KT
FM270300 23015KT P6SM BKN200
FM270600 27011KT P6SM BKN200
FM270900 30011KT P6SM BKN150
FM271500 34011G22KT P6SM FEW030 BKN060

Example: see airport list